This is the latest recevied weather packets stored in our database for station/object E23XBQ-1. If no packets are shown the sender has not sent any weather packets the latest 10 day(s).
| Time | Temp. | Humidity | Pressure | Rain* | Wind** | Luminosity | Snow |
|---|---|---|---|---|---|---|---|
| 1777478293 | 25.56° C | 86% | 973 hPa | - | - | 0 W/m² | - |
| 1777477669 | 25° C | 91% | 973 hPa | - | - | 0 W/m² | - |
| 1777477044 | 25° C | 91% | 973 hPa | - | - | 0 W/m² | - |
| 1777476419 | 25.56° C | 85% | 973 hPa | - | - | 0 W/m² | - |
| 1777475794 | 25.56° C | 89% | 972 hPa | - | - | 0 W/m² | - |
| 1777475170 | 25.56° C | 86% | 972 hPa | - | - | 0 W/m² | - |
| 1777474545 | 26.11° C | 78% | 972 hPa | - | - | 0 W/m² | - |
| 1777474055 | 26.11° C | 70% | 972 hPa | - | - | 0 W/m² | - |
| 1777473430 | 25.56° C | 85% | 972 hPa | - | - | 0 W/m² | - |
| 1777472801 | 26.11° C | 84% | 972 hPa | - | - | 0 W/m² | - |
| 1777472431 | 26.11° C | 83% | 972 hPa | - | - | 0 W/m² | - |
| 1777471805 | 26.11° C | 77% | 972 hPa | - | - | 0 W/m² | - |
| 1777471179 | 26.11° C | 84% | 972 hPa | - | - | 0 W/m² | - |
| 1777470555 | 26.11° C | 81% | 971 hPa | - | - | 0 W/m² | - |
| 1777469928 | 26.11° C | 78% | 971 hPa | - | - | 0 W/m² | - |
| 1777469675 | 26.11° C | 77% | 971 hPa | - | - | 0 W/m² | - |
| 1777469050 | 26.11° C | 74% | 971 hPa | - | - | 0 W/m² | - |
| 1777468424 | 26.11° C | 77% | 971 hPa | - | - | 0 W/m² | - |
| 1777467799 | 26.67° C | 72% | 971 hPa | - | - | 0 W/m² | - |
| 1777467175 | 26.11° C | 74% | 971 hPa | - | - | 0 W/m² | - |
| 1777466551 | 26.11° C | 73% | 971 hPa | - | - | 0 W/m² | - |
| 1777465927 | 26.67° C | 76% | 971 hPa | - | - | 0 W/m² | - |
| 1777465302 | 26.67° C | 72% | 970 hPa | - | - | 0 W/m² | - |
| 1777464677 | 26.67° C | 70% | 970 hPa | - | - | 0 W/m² | - |
| 1777464044 | 26.67° C | 69% | 970 hPa | - | - | 0 W/m² | - |
* Rain since midnight (hover to see other rain measurements)
** Current wind speed in m/s (hover to see current wind gust speed)